sensor_id;sensor_type;location;lat;lon;timestamp;P1;durP1;ratioP1;P2;durP2;ratioP2
66189;SDS011;52992;52.084;5.412;2022-12-18T00:01:25;53.07;;;21.03;;
66189;SDS011;52992;52.084;5.412;2022-12-18T00:03:54;54.57;;;20.50;;
66189;SDS011;52992;52.084;5.412;2022-12-18T00:06:22;53.33;;;20.50;;
66189;SDS011;52992;52.084;5.412;2022-12-18T00:08:51;56.30;;;22.43;;
66189;SDS011;52992;52.084;5.412;2022-12-18T00:11:19;50.97;;;19.93;;
66189;SDS011;52992;52.084;5.412;2022-12-18T00:13:48;49.80;;;20.50;;
66189;SDS011;52992;52.084;5.412;2022-12-18T00:16:16;55.23;;;21.93;;
66189;SDS011;52992;52.084;5.412;2022-12-18T00:18:49;54.07;;;20.53;;
66189;SDS011;52992;52.084;5.412;2022-12-18T00:21:18;50.70;;;21.00;;
66189;SDS011;52992;52.084;5.412;2022-12-18T00:23:46;54.30;;;21.23;;
66189;SDS011;52992;52.084;5.412;2022-12-18T00:26:15;52.37;;;20.57;;
66189;SDS011;52992;52.084;5.412;2022-12-18T00:28:48;53.87;;;20.73;;
66189;SDS011;52992;52.084;5.412;2022-12-18T00:31:17;54.53;;;21.40;;
66189;SDS011;52992;52.084;5.412;2022-12-18T00:33:46;54.97;;;21.10;;
66189;SDS011;52992;52.084;5.412;2022-12-18T00:36:18;55.93;;;20.17;;
66189;SDS011;52992;52.084;5.412;2022-12-18T00:38:47;56.83;;;21.37;;
66189;SDS011;52992;52.084;5.412;2022-12-18T00:41:17;50.50;;;19.27;;
66189;SDS011;52992;52.084;5.412;2022-12-18T00:44:04;56.57;;;21.67;;
66189;SDS011;52992;52.084;5.412;2022-12-18T00:46:32;49.23;;;20.03;;
66189;SDS011;52992;52.084;5.412;2022-12-18T00:48:59;51.03;;;19.67;;
66189;SDS011;52992;52.084;5.412;2022-12-18T00:51:26;54.00;;;19.80;;
66189;SDS011;52992;52.084;5.412;2022-12-18T00:53:53;55.57;;;20.13;;
66189;SDS011;52992;52.084;5.412;2022-12-18T00:56:20;51.27;;;21.30;;
66189;SDS011;52992;52.084;5.412;2022-12-18T00:58:47;50.13;;;21.30;;
66189;SDS011;52992;52.084;5.412;2022-12-18T01:01:14;50.53;;;20.10;;
66189;SDS011;52992;52.084;5.412;2022-12-18T01:03:41;52.73;;;19.63;;
66189;SDS011;52992;52.084;5.412;2022-12-18T01:06:09;59.03;;;20.47;;
66189;SDS011;52992;52.084;5.412;2022-12-18T01:08:38;57.90;;;21.37;;
66189;SDS011;52992;52.084;5.412;2022-12-18T01:11:08;48.10;;;18.93;;
66189;SDS011;52992;52.084;5.412;2022-12-18T01:13:38;51.43;;;20.90;;
66189;SDS011;52992;52.084;5.412;2022-12-18T01:16:06;51.60;;;19.87;;
66189;SDS011;52992;52.084;5.412;2022-12-18T01:18:34;47.47;;;19.77;;
66189;SDS011;52992;52.084;5.412;2022-12-18T01:21:05;50.00;;;21.37;;
66189;SDS011;52992;52.084;5.412;2022-12-18T01:23:36;44.60;;;20.40;;
66189;SDS011;52992;52.084;5.412;2022-12-18T01:26:08;57.03;;;22.60;;
66189;SDS011;52992;52.084;5.412;2022-12-18T01:28:40;60.77;;;22.27;;
66189;SDS011;52992;52.084;5.412;2022-12-18T01:31:21;60.33;;;22.80;;
66189;SDS011;52992;52.084;5.412;2022-12-18T01:33:50;57.13;;;20.00;;
66189;SDS011;52992;52.084;5.412;2022-12-18T01:36:19;52.30;;;21.13;;
66189;SDS011;52992;52.084;5.412;2022-12-18T01:38:48;59.43;;;21.83;;
66189;SDS011;52992;52.084;5.412;2022-12-18T01:41:16;51.73;;;20.20;;
66189;SDS011;52992;52.084;5.412;2022-12-18T01:43:50;60.60;;;20.90;;
66189;SDS011;52992;52.084;5.412;2022-12-18T01:46:19;51.97;;;21.07;;
66189;SDS011;52992;52.084;5.412;2022-12-18T01:48:48;50.03;;;19.17;;
66189;SDS011;52992;52.084;5.412;2022-12-18T01:51:19;49.93;;;19.63;;
66189;SDS011;52992;52.084;5.412;2022-12-18T01:53:46;55.03;;;21.10;;
66189;SDS011;52992;52.084;5.412;2022-12-18T01:56:17;51.73;;;20.63;;
66189;SDS011;52992;52.084;5.412;2022-12-18T02:01:30;50.63;;;20.50;;
66189;SDS011;52992;52.084;5.412;2022-12-18T02:06:59;51.57;;;20.03;;
66189;SDS011;52992;52.084;5.412;2022-12-18T02:09:32;46.70;;;19.50;;
66189;SDS011;52992;52.084;5.412;2022-12-18T02:12:18;59.97;;;20.10;;
66189;SDS011;52992;52.084;5.412;2022-12-18T02:15:02;42.53;;;18.07;;
66189;SDS011;52992;52.084;5.412;2022-12-18T02:20:43;47.20;;;20.13;;
66189;SDS011;52992;52.084;5.412;2022-12-18T02:28:36;48.73;;;18.93;;
66189;SDS011;52992;52.084;5.412;2022-12-18T02:31:11;54.33;;;19.90;;
66189;SDS011;52992;52.084;5.412;2022-12-18T02:33:45;42.63;;;17.97;;
66189;SDS011;52992;52.084;5.412;2022-12-18T02:36:14;44.90;;;18.37;;
66189;SDS011;52992;52.084;5.412;2022-12-18T02:38:43;46.60;;;18.70;;
66189;SDS011;52992;52.084;5.412;2022-12-18T02:41:14;45.03;;;17.53;;
66189;SDS011;52992;52.084;5.412;2022-12-18T02:43:47;51.17;;;18.47;;
66189;SDS011;52992;52.084;5.412;2022-12-18T02:46:31;50.77;;;19.20;;
66189;SDS011;52992;52.084;5.412;2022-12-18T02:49:20;50.53;;;18.97;;
66189;SDS011;52992;52.084;5.412;2022-12-18T02:57:24;49.40;;;19.33;;
66189;SDS011;52992;52.084;5.412;2022-12-18T03:00:05;45.93;;;18.50;;
66189;SDS011;52992;52.084;5.412;2022-12-18T03:08:38;42.77;;;18.23;;
66189;SDS011;52992;52.084;5.412;2022-12-18T03:11:09;46.13;;;17.63;;
66189;SDS011;52992;52.084;5.412;2022-12-18T03:13:48;47.20;;;18.03;;
66189;SDS011;52992;52.084;5.412;2022-12-18T03:16:23;40.10;;;17.67;;
66189;SDS011;52992;52.084;5.412;2022-12-18T03:18:56;46.27;;;18.17;;
66189;SDS011;52992;52.084;5.412;2022-12-18T03:21:28;44.53;;;18.60;;
66189;SDS011;52992;52.084;5.412;2022-12-18T03:24:03;44.23;;;17.27;;
66189;SDS011;52992;52.084;5.412;2022-12-18T03:26:35;42.30;;;17.10;;
66189;SDS011;52992;52.084;5.412;2022-12-18T03:29:07;43.90;;;18.17;;
66189;SDS011;52992;52.084;5.412;2022-12-18T03:31:40;39.80;;;16.40;;
66189;SDS011;52992;52.084;5.412;2022-12-18T03:34:09;45.70;;;18.30;;
66189;SDS011;52992;52.084;5.412;2022-12-18T03:36:44;43.70;;;18.17;;
66189;SDS011;52992;52.084;5.412;2022-12-18T03:39:12;49.63;;;19.10;;
66189;SDS011;52992;52.084;5.412;2022-12-18T03:41:44;43.37;;;17.17;;
66189;SDS011;52992;52.084;5.412;2022-12-18T03:44:52;37.23;;;17.63;;
66189;SDS011;52992;52.084;5.412;2022-12-18T03:47:30;39.80;;;17.40;;
66189;SDS011;52992;52.084;5.412;2022-12-18T03:50:14;39.47;;;17.20;;
66189;SDS011;52992;52.084;5.412;2022-12-18T03:55:20;38.33;;;17.47;;
66189;SDS011;52992;52.084;5.412;2022-12-18T03:57:55;42.57;;;17.10;;
66189;SDS011;52992;52.084;5.412;2022-12-18T04:00:26;39.57;;;17.50;;
66189;SDS011;52992;52.084;5.412;2022-12-18T04:03:03;37.40;;;16.63;;
66189;SDS011;52992;52.084;5.412;2022-12-18T04:05:38;34.60;;;15.63;;
66189;SDS011;52992;52.084;5.412;2022-12-18T04:08:08;42.47;;;17.63;;
66189;SDS011;52992;52.084;5.412;2022-12-18T04:10:39;36.70;;;16.50;;
66189;SDS011;52992;52.084;5.412;2022-12-18T04:13:06;40.37;;;15.70;;
66189;SDS011;52992;52.084;5.412;2022-12-18T04:15:34;39.00;;;16.77;;
66189;SDS011;52992;52.084;5.412;2022-12-18T04:18:04;36.27;;;15.40;;
66189;SDS011;52992;52.084;5.412;2022-12-18T04:20:38;38.00;;;16.47;;
66189;SDS011;52992;52.084;5.412;2022-12-18T04:23:04;30.17;;;14.97;;
66189;SDS011;52992;52.084;5.412;2022-12-18T04:25:32;30.17;;;14.57;;
66189;SDS011;52992;52.084;5.412;2022-12-18T04:28:09;40.27;;;15.50;;
66189;SDS011;52992;52.084;5.412;2022-12-18T04:30:37;38.67;;;14.63;;
66189;SDS011;52992;52.084;5.412;2022-12-18T04:33:08;34.10;;;15.23;;
66189;SDS011;52992;52.084;5.412;2022-12-18T04:35:39;30.60;;;14.83;;
66189;SDS011;52992;52.084;5.412;2022-12-18T04:38:06;26.20;;;13.77;;
66189;SDS011;52992;52.084;5.412;2022-12-18T04:40:34;36.00;;;15.80;;
66189;SDS011;52992;52.084;5.412;2022-12-18T04:43:05;34.30;;;13.87;;
66189;SDS011;52992;52.084;5.412;2022-12-18T04:45:32;35.27;;;14.40;;
66189;SDS011;52992;52.084;5.412;2022-12-18T04:48:02;37.43;;;14.17;;
66189;SDS011;52992;52.084;5.412;2022-12-18T04:50:30;35.90;;;14.80;;
66189;SDS011;52992;52.084;5.412;2022-12-18T04:52:57;28.10;;;14.00;;
66189;SDS011;52992;52.084;5.412;2022-12-18T04:55:24;36.60;;;16.00;;
66189;SDS011;52992;52.084;5.412;2022-12-18T04:57:51;34.50;;;15.47;;
66189;SDS011;52992;52.084;5.412;2022-12-18T05:00:18;30.80;;;13.00;;
66189;SDS011;52992;52.084;5.412;2022-12-18T05:02:45;28.60;;;14.27;;
66189;SDS011;52992;52.084;5.412;2022-12-18T05:05:12;32.23;;;14.80;;
66189;SDS011;52992;52.084;5.412;2022-12-18T05:07:39;26.30;;;13.50;;
66189;SDS011;52992;52.084;5.412;2022-12-18T05:10:06;32.23;;;14.13;;
66189;SDS011;52992;52.084;5.412;2022-12-18T05:12:34;28.00;;;13.03;;
66189;SDS011;52992;52.084;5.412;2022-12-18T05:15:20;30.70;;;13.50;;
66189;SDS011;52992;52.084;5.412;2022-12-18T05:17:47;34.67;;;14.37;;
66189;SDS011;52992;52.084;5.412;2022-12-18T05:20:14;29.13;;;14.23;;
66189;SDS011;52992;52.084;5.412;2022-12-18T05:22:41;26.47;;;12.70;;
66189;SDS011;52992;52.084;5.412;2022-12-18T05:25:08;26.33;;;12.70;;
66189;SDS011;52992;52.084;5.412;2022-12-18T05:27:34;26.27;;;13.43;;
66189;SDS011;52992;52.084;5.412;2022-12-18T05:30:01;26.03;;;12.77;;
66189;SDS011;52992;52.084;5.412;2022-12-18T05:32:29;26.83;;;13.13;;
66189;SDS011;52992;52.084;5.412;2022-12-18T05:34:55;27.50;;;13.93;;
66189;SDS011;52992;52.084;5.412;2022-12-18T05:37:23;29.90;;;14.13;;
66189;SDS011;52992;52.084;5.412;2022-12-18T05:39:50;26.37;;;13.60;;
66189;SDS011;52992;52.084;5.412;2022-12-18T05:42:16;32.63;;;15.27;;
66189;SDS011;52992;52.084;5.412;2022-12-18T05:44:43;32.47;;;14.50;;
66189;SDS011;52992;52.084;5.412;2022-12-18T05:47:10;31.47;;;14.33;;
66189;SDS011;52992;52.084;5.412;2022-12-18T05:49:37;39.80;;;16.00;;
66189;SDS011;52992;52.084;5.412;2022-12-18T05:52:04;26.47;;;12.37;;
66189;SDS011;52992;52.084;5.412;2022-12-18T05:54:30;31.90;;;13.33;;
66189;SDS011;52992;52.084;5.412;2022-12-18T05:56:57;22.07;;;11.83;;
66189;SDS011;52992;52.084;5.412;2022-12-18T05:59:24;27.67;;;12.73;;
66189;SDS011;52992;52.084;5.412;2022-12-18T06:01:51;23.70;;;12.00;;
66189;SDS011;52992;52.084;5.412;2022-12-18T06:04:18;30.30;;;12.93;;
66189;SDS011;52992;52.084;5.412;2022-12-18T06:06:45;25.30;;;12.57;;
66189;SDS011;52992;52.084;5.412;2022-12-18T06:09:12;25.53;;;11.90;;
66189;SDS011;52992;52.084;5.412;2022-12-18T06:11:38;22.87;;;11.97;;
66189;SDS011;52992;52.084;5.412;2022-12-18T06:14:05;23.23;;;12.60;;
66189;SDS011;52992;52.084;5.412;2022-12-18T06:16:33;26.37;;;12.23;;
66189;SDS011;52992;52.084;5.412;2022-12-18T06:19:00;22.93;;;11.17;;
66189;SDS011;52992;52.084;5.412;2022-12-18T06:21:29;26.43;;;12.23;;
66189;SDS011;52992;52.084;5.412;2022-12-18T06:23:57;22.80;;;11.73;;
66189;SDS011;52992;52.084;5.412;2022-12-18T06:26:24;25.60;;;12.83;;
66189;SDS011;52992;52.084;5.412;2022-12-18T06:28:53;21.90;;;11.23;;
66189;SDS011;52992;52.084;5.412;2022-12-18T06:31:20;23.07;;;11.43;;
66189;SDS011;52992;52.084;5.412;2022-12-18T06:33:47;19.53;;;10.47;;
66189;SDS011;52992;52.084;5.412;2022-12-18T06:36:14;24.60;;;12.03;;
66189;SDS011;52992;52.084;5.412;2022-12-18T06:38:42;24.00;;;11.37;;
66189;SDS011;52992;52.084;5.412;2022-12-18T06:41:10;22.67;;;11.70;;
66189;SDS011;52992;52.084;5.412;2022-12-18T06:43:39;22.13;;;11.83;;
66189;SDS011;52992;52.084;5.412;2022-12-18T06:46:06;24.80;;;10.67;;
66189;SDS011;52992;52.084;5.412;2022-12-18T06:48:34;25.23;;;12.47;;
66189;SDS011;52992;52.084;5.412;2022-12-18T06:51:01;22.87;;;12.17;;
66189;SDS011;52992;52.084;5.412;2022-12-18T06:53:29;23.83;;;12.40;;
66189;SDS011;52992;52.084;5.412;2022-12-18T06:56:00;24.13;;;12.67;;
66189;SDS011;52992;52.084;5.412;2022-12-18T06:58:35;21.40;;;11.43;;
66189;SDS011;52992;52.084;5.412;2022-12-18T07:01:03;27.17;;;12.83;;
66189;SDS011;52992;52.084;5.412;2022-12-18T07:03:32;28.00;;;13.03;;
66189;SDS011;52992;52.084;5.412;2022-12-18T07:05:58;27.13;;;12.73;;
66189;SDS011;52992;52.084;5.412;2022-12-18T07:08:25;22.27;;;13.10;;
66189;SDS011;52992;52.084;5.412;2022-12-18T07:10:52;21.57;;;12.20;;
66189;SDS011;52992;52.084;5.412;2022-12-18T07:13:21;20.97;;;11.67;;
66189;SDS011;52992;52.084;5.412;2022-12-18T07:15:48;23.20;;;11.70;;
66189;SDS011;52992;52.084;5.412;2022-12-18T07:18:15;24.40;;;11.47;;
66189;SDS011;52992;52.084;5.412;2022-12-18T07:20:42;27.37;;;12.43;;
66189;SDS011;52992;52.084;5.412;2022-12-18T07:23:09;28.77;;;13.23;;
66189;SDS011;52992;52.084;5.412;2022-12-18T07:25:35;28.23;;;14.10;;
66189;SDS011;52992;52.084;5.412;2022-12-18T07:28:03;24.73;;;12.77;;
66189;SDS011;52992;52.084;5.412;2022-12-18T07:30:30;26.77;;;13.07;;
66189;SDS011;52992;52.084;5.412;2022-12-18T07:32:57;28.20;;;13.33;;
66189;SDS011;52992;52.084;5.412;2022-12-18T07:35:23;24.97;;;12.93;;
66189;SDS011;52992;52.084;5.412;2022-12-18T07:37:50;25.13;;;13.00;;
66189;SDS011;52992;52.084;5.412;2022-12-18T07:40:17;24.33;;;11.97;;
66189;SDS011;52992;52.084;5.412;2022-12-18T07:42:44;24.60;;;12.57;;
66189;SDS011;52992;52.084;5.412;2022-12-18T07:45:11;21.23;;;12.63;;
66189;SDS011;52992;52.084;5.412;2022-12-18T07:47:38;25.80;;;12.93;;
66189;SDS011;52992;52.084;5.412;2022-12-18T07:50:07;20.50;;;11.37;;
66189;SDS011;52992;52.084;5.412;2022-12-18T07:52:34;23.53;;;12.50;;
66189;SDS011;52992;52.084;5.412;2022-12-18T07:55:01;26.07;;;14.73;;
66189;SDS011;52992;52.084;5.412;2022-12-18T07:57:28;26.47;;;13.27;;
66189;SDS011;52992;52.084;5.412;2022-12-18T08:00:15;23.57;;;13.37;;
66189;SDS011;52992;52.084;5.412;2022-12-18T08:02:42;24.77;;;13.87;;
66189;SDS011;52992;52.084;5.412;2022-12-18T08:05:09;22.47;;;12.00;;
66189;SDS011;52992;52.084;5.412;2022-12-18T08:07:36;21.23;;;11.63;;
66189;SDS011;52992;52.084;5.412;2022-12-18T08:10:03;27.13;;;13.23;;
66189;SDS011;52992;52.084;5.412;2022-12-18T08:12:31;29.73;;;14.73;;
66189;SDS011;52992;52.084;5.412;2022-12-18T08:14:58;25.97;;;13.90;;
66189;SDS011;52992;52.084;5.412;2022-12-18T08:17:25;26.00;;;14.40;;
66189;SDS011;52992;52.084;5.412;2022-12-18T08:19:51;26.23;;;14.20;;
66189;SDS011;52992;52.084;5.412;2022-12-18T08:22:18;25.37;;;12.80;;
66189;SDS011;52992;52.084;5.412;2022-12-18T08:24:45;24.60;;;12.33;;
66189;SDS011;52992;52.084;5.412;2022-12-18T08:27:12;21.47;;;12.87;;
66189;SDS011;52992;52.084;5.412;2022-12-18T08:29:54;20.83;;;11.33;;
66189;SDS011;52992;52.084;5.412;2022-12-18T08:32:22;22.70;;;12.87;;
66189;SDS011;52992;52.084;5.412;2022-12-18T08:34:49;21.77;;;12.30;;
66189;SDS011;52992;52.084;5.412;2022-12-18T08:37:16;26.33;;;13.83;;
66189;SDS011;52992;52.084;5.412;2022-12-18T08:39:42;23.83;;;12.20;;
66189;SDS011;52992;52.084;5.412;2022-12-18T08:42:09;24.93;;;12.97;;
66189;SDS011;52992;52.084;5.412;2022-12-18T08:44:55;28.07;;;12.50;;
66189;SDS011;52992;52.084;5.412;2022-12-18T08:47:21;22.50;;;11.77;;
66189;SDS011;52992;52.084;5.412;2022-12-18T08:49:48;20.90;;;11.90;;
66189;SDS011;52992;52.084;5.412;2022-12-18T08:52:15;23.07;;;12.20;;
66189;SDS011;52992;52.084;5.412;2022-12-18T08:54:41;23.37;;;11.73;;
66189;SDS011;52992;52.084;5.412;2022-12-18T08:57:08;20.07;;;11.63;;
66189;SDS011;52992;52.084;5.412;2022-12-18T08:59:35;22.03;;;11.60;;
66189;SDS011;52992;52.084;5.412;2022-12-18T09:02:02;21.80;;;12.17;;
66189;SDS011;52992;52.084;5.412;2022-12-18T09:04:29;18.97;;;11.03;;
66189;SDS011;52992;52.084;5.412;2022-12-18T09:06:56;24.67;;;11.77;;
66189;SDS011;52992;52.084;5.412;2022-12-18T09:09:22;19.53;;;10.50;;
66189;SDS011;52992;52.084;5.412;2022-12-18T09:11:49;25.87;;;11.10;;
66189;SDS011;52992;52.084;5.412;2022-12-18T09:14:16;24.50;;;10.80;;
66189;SDS011;52992;52.084;5.412;2022-12-18T09:16:43;21.27;;;10.90;;
66189;SDS011;52992;52.084;5.412;2022-12-18T09:19:10;20.30;;;10.20;;
66189;SDS011;52992;52.084;5.412;2022-12-18T09:21:37;19.93;;;11.53;;
66189;SDS011;52992;52.084;5.412;2022-12-18T09:24:12;20.80;;;10.70;;
66189;SDS011;52992;52.084;5.412;2022-12-18T09:26:39;17.07;;;10.80;;
66189;SDS011;52992;52.084;5.412;2022-12-18T09:29:08;18.53;;;11.20;;
66189;SDS011;52992;52.084;5.412;2022-12-18T09:31:36;18.27;;;10.33;;
66189;SDS011;52992;52.084;5.412;2022-12-18T09:34:04;23.77;;;10.80;;
66189;SDS011;52992;52.084;5.412;2022-12-18T09:36:31;18.23;;;10.40;;
66189;SDS011;52992;52.084;5.412;2022-12-18T09:38:57;19.73;;;9.97;;
66189;SDS011;52992;52.084;5.412;2022-12-18T09:41:33;27.43;;;12.13;;
66189;SDS011;52992;52.084;5.412;2022-12-18T09:44:25;22.57;;;11.07;;
66189;SDS011;52992;52.084;5.412;2022-12-18T09:49:55;20.03;;;10.90;;
66189;SDS011;52992;52.084;5.412;2022-12-18T09:52:26;19.17;;;10.57;;
66189;SDS011;52992;52.084;5.412;2022-12-18T09:55:03;19.43;;;11.23;;
66189;SDS011;52992;52.084;5.412;2022-12-18T09:57:33;17.43;;;10.30;;
66189;SDS011;52992;52.084;5.412;2022-12-18T10:00:14;20.63;;;10.37;;
66189;SDS011;52992;52.084;5.412;2022-12-18T10:02:45;19.20;;;11.37;;
66189;SDS011;52992;52.084;5.412;2022-12-18T10:05:13;18.80;;;10.73;;
66189;SDS011;52992;52.084;5.412;2022-12-18T10:21:18;26.13;;;12.67;;
66189;SDS011;52992;52.084;5.412;2022-12-18T10:23:53;20.63;;;11.00;;
66189;SDS011;52992;52.084;5.412;2022-12-18T10:26:38;21.77;;;10.37;;
66189;SDS011;52992;52.084;5.412;2022-12-18T10:29:15;19.17;;;10.03;;
66189;SDS011;52992;52.084;5.412;2022-12-18T10:31:42;14.63;;;9.17;;
66189;SDS011;52992;52.084;5.412;2022-12-18T10:34:12;19.37;;;10.30;;
66189;SDS011;52992;52.084;5.412;2022-12-18T10:36:39;21.50;;;10.23;;
66189;SDS011;52992;52.084;5.412;2022-12-18T10:39:17;16.47;;;9.87;;
66189;SDS011;52992;52.084;5.412;2022-12-18T10:41:46;18.13;;;9.90;;
66189;SDS011;52992;52.084;5.412;2022-12-18T10:44:22;19.27;;;10.20;;
66189;SDS011;52992;52.084;5.412;2022-12-18T10:46:51;26.57;;;11.00;;
66189;SDS011;52992;52.084;5.412;2022-12-18T10:49:23;21.43;;;11.73;;
66189;SDS011;52992;52.084;5.412;2022-12-18T10:54:34;18.23;;;10.10;;
66189;SDS011;52992;52.084;5.412;2022-12-18T10:57:15;16.67;;;10.07;;
66189;SDS011;52992;52.084;5.412;2022-12-18T10:59:57;17.27;;;10.10;;
66189;SDS011;52992;52.084;5.412;2022-12-18T11:02:27;18.37;;;10.03;;
66189;SDS011;52992;52.084;5.412;2022-12-18T11:05:00;16.50;;;9.23;;
66189;SDS011;52992;52.084;5.412;2022-12-18T11:07:48;16.83;;;9.73;;
66189;SDS011;52992;52.084;5.412;2022-12-18T11:10:17;18.03;;;9.57;;
66189;SDS011;52992;52.084;5.412;2022-12-18T11:12:45;18.73;;;9.47;;
66189;SDS011;52992;52.084;5.412;2022-12-18T11:15:20;15.57;;;8.77;;
66189;SDS011;52992;52.084;5.412;2022-12-18T11:17:50;18.33;;;9.90;;
66189;SDS011;52992;52.084;5.412;2022-12-18T11:20:20;17.60;;;8.87;;
66189;SDS011;52992;52.084;5.412;2022-12-18T11:23:11;19.70;;;9.27;;
66189;SDS011;52992;52.084;5.412;2022-12-18T11:25:39;20.13;;;10.60;;
66189;SDS011;52992;52.084;5.412;2022-12-18T11:31:09;18.07;;;9.83;;
66189;SDS011;52992;52.084;5.412;2022-12-18T11:33:46;18.70;;;9.47;;
66189;SDS011;52992;52.084;5.412;2022-12-18T11:36:44;17.57;;;9.27;;
66189;SDS011;52992;52.084;5.412;2022-12-18T11:39:20;17.53;;;9.30;;
66189;SDS011;52992;52.084;5.412;2022-12-18T11:42:15;21.57;;;9.60;;
66189;SDS011;52992;52.084;5.412;2022-12-18T11:44:51;16.57;;;8.93;;
66189;SDS011;52992;52.084;5.412;2022-12-18T11:47:30;18.57;;;9.63;;
66189;SDS011;52992;52.084;5.412;2022-12-18T11:50:10;19.27;;;9.20;;
66189;SDS011;52992;52.084;5.412;2022-12-18T11:52:42;19.93;;;9.40;;
66189;SDS011;52992;52.084;5.412;2022-12-18T11:55:16;17.37;;;9.50;;
66189;SDS011;52992;52.084;5.412;2022-12-18T11:57:57;18.17;;;9.37;;
66189;SDS011;52992;52.084;5.412;2022-12-18T12:00:31;20.30;;;10.20;;
66189;SDS011;52992;52.084;5.412;2022-12-18T12:16:57;20.20;;;10.57;;
66189;SDS011;52992;52.084;5.412;2022-12-18T12:31:07;18.40;;;10.10;;
66189;SDS011;52992;52.084;5.412;2022-12-18T12:33:59;18.07;;;10.30;;
66189;SDS011;52992;52.084;5.412;2022-12-18T12:36:57;20.97;;;10.23;;
66189;SDS011;52992;52.084;5.412;2022-12-18T12:39:32;18.43;;;10.33;;
66189;SDS011;52992;52.084;5.412;2022-12-18T12:42:06;16.30;;;9.60;;
66189;SDS011;52992;52.084;5.412;2022-12-18T12:45:05;20.60;;;10.40;;
66189;SDS011;52992;52.084;5.412;2022-12-18T12:47:40;19.67;;;11.00;;
66189;SDS011;52992;52.084;5.412;2022-12-18T12:50:13;21.20;;;10.03;;
66189;SDS011;52992;52.084;5.412;2022-12-18T12:52:53;21.20;;;10.30;;
66189;SDS011;52992;52.084;5.412;2022-12-18T12:55:22;16.70;;;9.57;;
66189;SDS011;52992;52.084;5.412;2022-12-18T12:57:58;20.83;;;10.60;;
66189;SDS011;52992;52.084;5.412;2022-12-18T13:00:26;19.93;;;10.27;;
66189;SDS011;52992;52.084;5.412;2022-12-18T13:03:19;24.97;;;11.23;;
66189;SDS011;52992;52.084;5.412;2022-12-18T13:06:00;20.53;;;10.93;;
66189;SDS011;52992;52.084;5.412;2022-12-18T13:09:00;16.80;;;10.60;;
66189;SDS011;52992;52.084;5.412;2022-12-18T13:11:35;26.43;;;12.17;;
66189;SDS011;52992;52.084;5.412;2022-12-18T13:14:30;22.30;;;11.50;;
66189;SDS011;52992;52.084;5.412;2022-12-18T13:17:17;17.10;;;10.87;;
66189;SDS011;52992;52.084;5.412;2022-12-18T13:20:04;20.60;;;10.67;;
66189;SDS011;52992;52.084;5.412;2022-12-18T13:22:43;19.93;;;10.67;;
66189;SDS011;52992;52.084;5.412;2022-12-18T13:28:13;17.80;;;10.80;;
66189;SDS011;52992;52.084;5.412;2022-12-18T13:30:48;24.33;;;12.33;;
66189;SDS011;52992;52.084;5.412;2022-12-18T13:35:52;22.60;;;11.47;;
66189;SDS011;52992;52.084;5.412;2022-12-18T13:38:40;23.67;;;11.97;;
66189;SDS011;52992;52.084;5.412;2022-12-18T13:43:45;26.00;;;11.60;;
66189;SDS011;52992;52.084;5.412;2022-12-18T13:51:49;22.53;;;10.60;;
66189;SDS011;52992;52.084;5.412;2022-12-18T13:56:50;20.53;;;9.57;;
66189;SDS011;52992;52.084;5.412;2022-12-18T14:01:56;22.77;;;11.83;;
66189;SDS011;52992;52.084;5.412;2022-12-18T14:04:30;23.37;;;10.40;;
66189;SDS011;52992;52.084;5.412;2022-12-18T14:10:11;16.90;;;9.63;;
66189;SDS011;52992;52.084;5.412;2022-12-18T14:13:05;21.77;;;11.53;;
66189;SDS011;52992;52.084;5.412;2022-12-18T14:15:40;25.07;;;11.10;;
66189;SDS011;52992;52.084;5.412;2022-12-18T14:18:25;18.43;;;10.30;;
66189;SDS011;52992;52.084;5.412;2022-12-18T14:20:55;24.63;;;12.33;;
66189;SDS011;52992;52.084;5.412;2022-12-18T14:28:56;21.27;;;10.40;;
66189;SDS011;52992;52.084;5.412;2022-12-18T14:31:29;19.30;;;10.67;;
66189;SDS011;52992;52.084;5.412;2022-12-18T14:33:57;22.70;;;11.33;;
66189;SDS011;52992;52.084;5.412;2022-12-18T14:36:25;19.07;;;10.20;;
66189;SDS011;52992;52.084;5.412;2022-12-18T14:38:54;19.60;;;10.77;;
66189;SDS011;52992;52.084;5.412;2022-12-18T14:41:25;19.60;;;10.03;;
66189;SDS011;52992;52.084;5.412;2022-12-18T14:43:53;21.87;;;11.17;;
66189;SDS011;52992;52.084;5.412;2022-12-18T14:48:50;23.07;;;10.90;;
66189;SDS011;52992;52.084;5.412;2022-12-18T14:51:18;22.33;;;10.87;;
66189;SDS011;52992;52.084;5.412;2022-12-18T14:53:48;20.83;;;10.53;;
66189;SDS011;52992;52.084;5.412;2022-12-18T14:56:22;26.17;;;11.83;;
66189;SDS011;52992;52.084;5.412;2022-12-18T14:58:58;23.73;;;11.93;;
66189;SDS011;52992;52.084;5.412;2022-12-18T15:01:31;23.17;;;11.37;;
66189;SDS011;52992;52.084;5.412;2022-12-18T15:04:01;24.40;;;10.73;;
66189;SDS011;52992;52.084;5.412;2022-12-18T15:06:30;22.00;;;11.50;;
66189;SDS011;52992;52.084;5.412;2022-12-18T15:09:23;20.80;;;11.13;;
66189;SDS011;52992;52.084;5.412;2022-12-18T15:11:54;23.87;;;10.60;;
66189;SDS011;52992;52.084;5.412;2022-12-18T15:16:59;23.53;;;11.10;;
66189;SDS011;52992;52.084;5.412;2022-12-18T15:19:32;20.20;;;11.17;;
66189;SDS011;52992;52.084;5.412;2022-12-18T15:22:03;27.10;;;12.03;;
66189;SDS011;52992;52.084;5.412;2022-12-18T15:24:32;19.50;;;10.40;;
66189;SDS011;52992;52.084;5.412;2022-12-18T15:26:59;21.90;;;10.70;;
66189;SDS011;52992;52.084;5.412;2022-12-18T15:29:27;20.67;;;10.23;;
66189;SDS011;52992;52.084;5.412;2022-12-18T15:34:31;18.77;;;10.87;;
66189;SDS011;52992;52.084;5.412;2022-12-18T15:37:00;18.87;;;10.47;;
66189;SDS011;52992;52.084;5.412;2022-12-18T15:39:26;20.00;;;10.30;;
66189;SDS011;52992;52.084;5.412;2022-12-18T15:41:53;26.03;;;11.07;;
66189;SDS011;52992;52.084;5.412;2022-12-18T15:44:39;22.43;;;10.43;;
66189;SDS011;52992;52.084;5.412;2022-12-18T15:47:10;18.93;;;10.90;;
66189;SDS011;52992;52.084;5.412;2022-12-18T15:49:39;17.37;;;9.90;;
66189;SDS011;52992;52.084;5.412;2022-12-18T15:52:06;20.60;;;9.83;;
66189;SDS011;52992;52.084;5.412;2022-12-18T15:54:38;22.43;;;10.80;;
66189;SDS011;52992;52.084;5.412;2022-12-18T15:57:23;20.37;;;11.10;;
66189;SDS011;52992;52.084;5.412;2022-12-18T15:59:51;21.07;;;11.70;;
66189;SDS011;52992;52.084;5.412;2022-12-18T16:02:22;24.33;;;11.10;;
66189;SDS011;52992;52.084;5.412;2022-12-18T16:04:50;24.07;;;11.07;;
66189;SDS011;52992;52.084;5.412;2022-12-18T16:07:18;21.77;;;10.87;;
66189;SDS011;52992;52.084;5.412;2022-12-18T16:09:50;29.07;;;13.00;;
66189;SDS011;52992;52.084;5.412;2022-12-18T16:12:19;20.93;;;11.60;;
66189;SDS011;52992;52.084;5.412;2022-12-18T16:14:48;26.63;;;11.90;;
66189;SDS011;52992;52.084;5.412;2022-12-18T16:17:15;23.23;;;11.97;;
66189;SDS011;52992;52.084;5.412;2022-12-18T16:19:42;21.60;;;10.97;;
66189;SDS011;52992;52.084;5.412;2022-12-18T16:22:42;23.43;;;11.33;;
66189;SDS011;52992;52.084;5.412;2022-12-18T16:25:01;27.43;;;12.87;;
66189;SDS011;52992;52.084;5.412;2022-12-18T16:27:29;23.07;;;12.50;;
66189;SDS011;52992;52.084;5.412;2022-12-18T16:29:55;23.17;;;11.90;;
66189;SDS011;52992;52.084;5.412;2022-12-18T16:32:22;24.03;;;11.90;;
66189;SDS011;52992;52.084;5.412;2022-12-18T16:34:49;24.98;;;13.57;;
66189;SDS011;52992;52.084;5.412;2022-12-18T16:37:16;24.77;;;12.37;;
66189;SDS011;52992;52.084;5.412;2022-12-18T16:39:43;22.03;;;11.60;;